Time;durP1;ratioP1;P1;durP2;ratioP2;P2;SDS_P1;SDS_P2;PMS_P1;PMS_P2;Temp;Humidity;BMP_temperature;BMP_pressure;BME280_temperature;BME280_humidity;BME280_pressure;Samples;Min_cycle;Max_cycle;Signal;HPM_P1;HPM_P2
2022/02/19 00:02:23;;;;;;;14.27;4.35;;;9.40;84.50;;;;;;4956921;28;20054;-78
2022/02/19 00:04:48;;;;;;;12.38;5.10;;;9.40;86.80;;;;;;4939585;29;20023;-74
2022/02/19 00:07:14;;;;;;;6.60;3.28;;;9.40;89.90;;;;;;4956881;28;20401;-73
2022/02/19 00:09:39;;;;;;;6.55;3.20;;;9.60;83.80;;;;;;4956804;29;20389;-78
2022/02/19 00:12:05;;;;;;;5.25;2.92;;;9.40;99.90;;;;;;4956799;28;20031;-78
2022/02/19 00:14:31;;;;;;;7.18;3.47;;;9.30;99.90;;;;;;4956842;29;20047;-74
2022/02/19 00:16:57;;;;;;;7.65;3.70;;;9.20;99.90;;;;;;4939573;29;20520;-78
2022/02/19 00:19:22;;;;;;;5.22;3.20;;;9.00;99.90;;;;;;4939431;29;20054;-78
2022/02/19 00:21:48;;;;;;;7.03;3.88;;;8.90;99.90;;;;;;4939513;29;20486;-78
2022/02/19 00:24:13;;;;;;;6.80;3.58;;;8.80;99.90;;;;;;4956488;29;20481;-73
2022/02/19 00:26:39;;;;;;;8.15;4.28;;;8.70;99.90;;;;;;4939106;29;20508;-78
2022/02/19 00:29:05;;;;;;;6.85;3.97;;;8.70;99.90;;;;;;4939408;29;20034;-78
2022/02/19 00:31:31;;;;;;;6.15;3.72;;;8.60;99.90;;;;;;4939259;29;20497;-73
2022/02/19 00:33:57;;;;;;;7.65;4.68;;;8.70;99.90;;;;;;4956438;29;20071;-74
2022/02/19 00:36:22;;;;;;;6.85;4.22;;;8.70;99.90;;;;;;4939277;29;20508;-78
2022/02/19 00:38:48;;;;;;;5.72;3.75;;;8.60;99.90;;;;;;4939175;29;20135;-78
2022/02/19 00:41:17;;;;;;;9.15;4.45;;;8.70;99.90;;;;;;4956061;28;20027;-78
2022/02/19 00:43:43;;;;;;;7.50;4.35;;;8.70;99.90;;;;;;4956296;28;20385;-79
2022/02/19 00:46:09;;;;;;;5.25;3.78;;;8.70;99.90;;;;;;4938813;29;20038;-73
2022/02/19 00:48:34;;;;;;;7.70;4.18;;;8.90;99.90;;;;;;4956143;29;20027;-78
2022/02/19 00:51:00;;;;;;;8.50;4.78;;;8.90;99.90;;;;;;4956033;28;20027;-78
2022/02/19 00:53:26;;;;;;;7.68;4.05;;;9.00;95.80;;;;;;4938844;29;20034;-78
2022/02/19 00:55:52;;;;;;;8.68;3.55;;;9.10;93.00;;;;;;4955789;28;20035;-72
2022/02/19 00:58:17;;;;;;;5.32;3.33;;;9.30;85.80;;;;;;4937854;29;20437;-73
2022/02/19 01:00:43;;;;;;;7.93;3.67;;;9.40;82.40;;;;;;4955618;28;20062;-73
2022/02/19 01:03:08;;;;;;;6.93;2.92;;;9.40;83.30;;;;;;4955849;29;20030;-73
2022/02/19 01:05:34;;;;;;;4.85;3.38;;;9.40;77.90;;;;;;4938516;29;20027;-78
2022/02/19 01:08:00;;;;;;;5.65;3.00;;;9.50;76.80;;;;;;4938557;29;20027;-73
2022/02/19 01:10:25;;;;;;;3.13;2.08;;;9.40;76.00;;;;;;4938533;29;20031;-79
2022/02/19 01:12:51;;;;;;;2.65;1.50;;;9.40;71.70;;;;;;4955568;28;20066;-73
2022/02/19 01:15:17;;;;;;;1.73;1.40;;;9.20;69.40;;;;;;4955767;29;20028;-74
2022/02/19 01:17:42;;;;;;;3.47;1.38;;;9.20;68.10;;;;;;4955661;28;20028;-74
2022/02/19 01:20:09;;;;;;;2.55;2.00;;;9.20;67.20;;;;;;4955213;28;20059;-78
2022/02/19 01:22:35;;;;;;;3.60;2.00;;;9.20;67.00;;;;;;4938242;29;20031;-73
2022/02/19 01:25:02;;;;;;;3.58;2.08;;;9.20;66.10;;;;;;4938274;29;20023;-78
2022/02/19 01:27:28;;;;;;;3.60;1.60;;;9.20;66.10;;;;;;4955339;28;20043;-73
2022/02/19 01:29:53;;;;;;;2.90;1.15;;;9.10;67.10;;;;;;4955366;29;20028;-74
2022/02/19 01:32:19;;;;;;;3.90;2.28;;;9.10;66.30;;;;;;4955098;28;20378;-73
2022/02/19 01:34:45;;;;;;;3.03;1.60;;;9.10;67.30;;;;;;4955320;28;20032;-74
2022/02/19 01:37:10;;;;;;;3.55;2.28;;;9.10;68.20;;;;;;4937982;29;20027;-73
2022/02/19 01:39:36;;;;;;;3.30;2.05;;;9.00;69.30;;;;;;4955126;28;20019;-75
2022/02/19 01:42:02;;;;;;;2.63;1.63;;;9.00;69.70;;;;;;4960898;28;20034;-79
2022/02/19 01:44:36;;;;;;;2.72;2.28;;;9.00;70.70;;;;;;4974575;28;20389;-73
2022/02/19 01:47:03;;;;;;;3.28;1.70;;;9.00;71.00;;;;;;4974174;28;20039;-79
2022/02/19 01:49:29;;;;;;;3.45;1.88;;;8.90;71.30;;;;;;4974503;28;20027;-79
2022/02/19 01:51:54;;;;;;;4.50;2.08;;;8.80;71.10;;;;;;4957008;28;20019;-73
2022/02/19 01:54:20;;;;;;;2.95;1.52;;;8.80;69.20;;;;;;4974261;28;20476;-78
2022/02/19 01:56:46;;;;;;;1.65;1.20;;;8.80;68.30;;;;;;4974143;28;20436;-73
2022/02/19 01:59:12;;;;;;;3.63;1.40;;;8.80;67.00;;;;;;4957330;28;20026;-78
2022/02/19 02:01:37;;;;;;;1.88;1.63;;;8.80;63.10;;;;;;4972830;28;20077;-78
2022/02/19 02:04:03;;;;;;;3.03;1.88;;;8.80;61.80;;;;;;4972997;28;20113;-73
2022/02/19 02:06:30;;;;;;;5.13;2.15;;;8.80;63.10;;;;;;4974206;28;20046;-79
2022/02/19 02:08:58;;;;;;;2.20;1.63;;;8.70;63.70;;;;;;4974220;28;20038;-73
2022/02/19 02:11:23;;;;;;;3.78;2.15;;;8.70;64.00;;;;;;4956637;28;20026;-79
2022/02/19 02:13:49;;;;;;;3.22;2.00;;;8.70;61.20;;;;;;4972720;28;20031;-78
2022/02/19 02:16:14;;;;;;;5.68;2.28;;;8.60;60.70;;;;;;4956817;28;20022;-78
2022/02/19 02:18:43;;;;;;;7.47;3.40;;;8.60;61.10;;;;;;4956734;28;20399;-78
2022/02/19 02:21:09;;;;;;;2.30;1.33;;;8.60;59.30;;;;;;4973843;28;20063;-79
2022/02/19 02:23:35;;;;;;;3.67;1.00;;;8.60;57.40;;;;;;4956721;28;20077;-78
2022/02/19 02:26:02;;;;;;;3.50;1.10;;;8.60;56.20;;;;;;4956698;28;20051;-73
2022/02/19 02:28:28;;;;;;;4.28;1.50;;;8.40;56.70;;;;;;4973992;28;20504;-79
2022/02/19 02:30:54;;;;;;;2.85;1.25;;;8.30;57.40;;;;;;4956570;28;20035;-74
2022/02/19 02:33:21;;;;;;;1.25;0.98;;;8.20;56.50;;;;;;4974071;28;20037;-79
2022/02/19 02:35:51;;;;;;;3.08;1.13;;;8.20;56.00;;;;;;4956720;28;20039;-73
2022/02/19 02:38:18;;;;;;;3.75;1.73;;;8.10;56.00;;;;;;4974239;28;20069;-73
2022/02/19 02:40:44;;;;;;;8.18;3.30;;;8.00;55.30;;;;;;4966978;28;20020;-79
2022/02/19 02:43:10;;;;;;;1.17;0.90;;;8.00;54.30;;;;;;4954615;29;20023;-74
2022/02/19 02:45:37;;;;;;;2.08;1.45;;;7.90;54.00;;;;;;4954672;28;20076;-73
2022/02/19 02:48:03;;;;;;;3.50;1.10;;;7.80;53.40;;;;;;4954488;28;20046;-73
2022/02/19 02:50:28;;;;;;;2.15;1.48;;;7.80;53.40;;;;;;4954621;28;20385;-73
2022/02/19 02:52:54;;;;;;;2.88;0.90;;;7.90;52.50;;;;;;4954571;28;20031;-79
2022/02/19 02:55:20;;;;;;;0.90;0.90;;;7.90;52.20;;;;;;4937254;29;20034;-73
2022/02/19 02:57:46;;;;;;;1.05;0.77;;;7.80;52.30;;;;;;4954381;28;20038;-79
2022/02/19 03:00:13;;;;;;;4.53;1.25;;;7.60;53.20;;;;;;4954394;28;20023;-74
2022/02/19 03:02:40;;;;;;;1.65;1.20;;;7.60;53.20;;;;;;4937119;29;20569;-76
2022/02/19 03:05:07;;;;;;;3.45;1.08;;;7.50;53.30;;;;;;4954349;29;20068;-73
2022/02/19 03:07:34;;;;;;;4.18;1.50;;;7.60;52.30;;;;;;4954316;28;20045;-73
2022/02/19 03:10:00;;;;;;;2.58;0.75;;;7.50;52.70;;;;;;4953026;29;20045;-73
2022/02/19 03:12:26;;;;;;;2.28;1.27;;;7.50;52.80;;;;;;4937051;29;20114;-79
2022/02/19 03:14:52;;;;;;;31.50;11.27;;;7.40;52.50;;;;;;4937042;29;20397;-74
2022/02/19 03:17:17;;;;;;;4.25;1.42;;;7.40;52.20;;;;;;4937032;29;20015;-79
2022/02/19 03:19:45;;;;;;;2.28;0.95;;;7.40;52.10;;;;;;4937136;29;20047;-73
2022/02/19 03:22:10;;;;;;;3.70;1.20;;;7.50;51.90;;;;;;4940300;29;20027;-79
2022/02/19 03:24:36;;;;;;;1.70;1.30;;;7.40;51.80;;;;;;4957504;29;20424;-75
2022/02/19 03:27:04;;;;;;;1.92;0.85;;;7.40;52.30;;;;;;4940348;29;20035;-74
2022/02/19 03:29:30;;;;;;;2.58;1.42;;;7.40;51.80;;;;;;4940244;29;20166;-73
2022/02/19 03:31:56;;;;;;;3.55;1.50;;;7.40;51.80;;;;;;4957561;28;20532;-73
2022/02/19 03:34:22;;;;;;;2.33;1.50;;;7.40;52.00;;;;;;4957522;28;20027;-73
2022/02/19 03:36:48;;;;;;;2.05;1.83;;;7.30;52.00;;;;;;4957405;28;20028;-73
2022/02/19 03:39:13;;;;;;;3.40;1.63;;;7.30;52.30;;;;;;4957275;29;20019;-79
2022/02/19 03:41:39;;;;;;;3.65;1.65;;;7.20;52.30;;;;;;4940103;29;20019;-79
2022/02/19 03:44:05;;;;;;;3.17;1.73;;;7.20;52.50;;;;;;4956946;29;20392;-79
2022/02/19 03:46:31;;;;;;;3.33;1.85;;;7.20;52.90;;;;;;4940176;29;20477;-79
2022/02/19 03:48:57;;;;;;;4.43;1.67;;;7.10;53.10;;;;;;4939970;29;20481;-73
2022/02/19 03:51:23;;;;;;;5.60;2.30;;;7.00;53.50;;;;;;4957484;28;20073;-79
2022/02/19 03:53:49;;;;;;;5.20;2.38;;;7.10;53.20;;;;;;4957308;28;20059;-77
2022/02/19 03:56:14;;;;;;;3.72;1.83;;;7.00;53.90;;;;;;4955902;28;20034;-73
2022/02/19 03:58:40;;;;;;;3.88;2.60;;;7.10;52.90;;;;;;4938377;29;20050;-79
2022/02/19 04:01:05;;;;;;;8.57;2.30;;;7.00;53.50;;;;;;4939247;28;20034;-73
2022/02/19 04:03:31;;;;;;;4.95;2.83;;;7.00;53.50;;;;;;4939610;29;20451;-74
2022/02/19 04:05:57;;;;;;;8.07;2.78;;;6.90;53.60;;;;;;4956724;28;20460;-79
2022/02/19 04:08:24;;;;;;;8.63;3.13;;;6.90;53.60;;;;;;4939587;29;20401;-74
2022/02/19 04:10:50;;;;;;;8.77;3.13;;;6.90;53.80;;;;;;4956736;28;20429;-73
2022/02/19 04:13:16;;;;;;;4.88;2.92;;;6.90;54.50;;;;;;4956729;29;20023;-79
2022/02/19 04:15:41;;;;;;;7.32;3.55;;;6.80;53.90;;;;;;4956650;28;20030;-74
2022/02/19 04:18:07;;;;;;;6.00;2.80;;;6.80;54.20;;;;;;4931281;29;20393;-79
2022/02/19 04:20:32;;;;;;;7.55;3.17;;;6.80;54.00;;;;;;4937518;29;20052;-75
2022/02/19 04:22:58;;;;;;;7.45;2.80;;;6.80;54.30;;;;;;4937546;29;20095;-73
2022/02/19 04:25:28;;;;;;;8.35;3.35;;;6.80;54.00;;;;;;4937320;29;20028;-74
2022/02/19 04:27:55;;;;;;;8.88;3.38;;;6.80;54.10;;;;;;4937587;29;20075;-73
2022/02/19 04:30:21;;;;;;;4.93;2.90;;;6.70;54.50;;;;;;4920212;29;20434;-73
2022/02/19 04:32:47;;;;;;;6.00;2.63;;;6.60;54.80;;;;;;4937357;29;20043;-79
2022/02/19 04:35:13;;;;;;;4.78;2.72;;;6.60;55.30;;;;;;4937053;29;20087;-79
2022/02/19 04:37:38;;;;;;;7.00;2.53;;;6.40;55.60;;;;;;4920124;29;20029;-73
2022/02/19 04:40:05;;;;;;;6.90;3.05;;;6.60;55.30;;;;;;4937242;29;20106;-78
2022/02/19 04:42:31;;;;;;;4.70;2.80;;;6.50;55.80;;;;;;4920073;29;20016;-79
2022/02/19 04:44:57;;;;;;;6.43;2.88;;;6.50;55.90;;;;;;4920026;29;20020;-79
2022/02/19 04:47:22;;;;;;;5.57;2.47;;;6.50;56.20;;;;;;4919875;29;20554;-79
2022/02/19 04:49:48;;;;;;;4.00;2.60;;;6.40;56.30;;;;;;4920031;29;20058;-74
2022/02/19 04:52:14;;;;;;;5.57;2.42;;;6.40;56.10;;;;;;4919914;29;20034;-79
2022/02/19 04:54:40;;;;;;;6.18;2.33;;;6.40;56.20;;;;;;4936599;29;20028;-73
2022/02/19 04:57:05;;;;;;;3.25;2.00;;;6.40;56.60;;;;;;4936844;29;20027;-79
2022/02/19 04:59:31;;;;;;;4.25;2.20;;;6.30;56.80;;;;;;4919564;29;20038;-73
2022/02/19 05:01:57;;;;;;;5.50;2.20;;;6.40;56.20;;;;;;4936895;29;20038;-79
2022/02/19 05:04:22;;;;;;;5.93;2.33;;;6.30;56.20;;;;;;4936733;29;20489;-79
2022/02/19 05:06:48;;;;;;;4.68;2.78;;;6.30;56.10;;;;;;4936618;29;20394;-73
2022/02/19 05:09:14;;;;;;;5.57;3.13;;;6.20;56.30;;;;;;4919555;29;20027;-74
2022/02/19 05:11:40;;;;;;;7.78;3.20;;;6.20;56.00;;;;;;4936472;29;20024;-79
2022/02/19 05:14:05;;;;;;;5.15;2.80;;;6.20;55.80;;;;;;4936422;29;20031;-73
2022/02/19 05:16:31;;;;;;;10.68;3.00;;;6.10;56.00;;;;;;4936441;29;20032;-73
2022/02/19 05:18:56;;;;;;;7.45;2.92;;;6.10;55.70;;;;;;4919254;29;20024;-79
2022/02/19 05:21:22;;;;;;;4.78;2.92;;;6.00;56.30;;;;;;4919295;29;20151;-74
2022/02/19 05:23:47;;;;;;;6.57;2.50;;;6.00;56.40;;;;;;4936356;29;20442;-74
2022/02/19 05:26:13;;;;;;;9.30;3.22;;;6.00;56.80;;;;;;4935937;29;20016;-73
2022/02/19 05:28:41;;;;;;;7.85;4.00;;;5.90;57.20;;;;;;4919288;29;20028;-80
2022/02/19 05:31:06;;;;;;;10.70;3.90;;;5.90;56.70;;;;;;4919102;29;20474;-73
2022/02/19 05:33:32;;;;;;;6.85;3.55;;;5.90;56.50;;;;;;4936283;29;20035;-74
2022/02/19 05:35:58;;;;;;;3.63;2.78;;;5.90;56.80;;;;;;4936074;29;20534;-79
2022/02/19 05:38:23;;;;;;;7.65;3.47;;;5.80;56.10;;;;;;4936175;29;20031;-79
2022/02/19 05:40:49;;;;;;;6.88;3.55;;;5.70;56.00;;;;;;4934987;29;20478;-73
2022/02/19 05:43:15;;;;;;;5.72;2.25;;;5.80;55.80;;;;;;4934314;29;20016;-79
2022/02/19 05:45:42;;;;;;;3.45;2.05;;;5.70;56.70;;;;;;4935974;29;20019;-79
2022/02/19 05:48:08;;;;;;;4.72;1.70;;;5.70;55.50;;;;;;4934720;29;20046;-79
2022/02/19 05:50:33;;;;;;;4.18;1.95;;;5.70;55.80;;;;;;4935843;29;20478;-79
2022/02/19 05:53:02;;;;;;;2.63;1.50;;;5.70;55.80;;;;;;4936065;29;20055;-73
2022/02/19 05:55:27;;;;;;;3.50;1.45;;;5.70;56.00;;;;;;4935179;29;20071;-79
2022/02/19 05:57:53;;;;;;;3.40;1.60;;;5.60;56.20;;;;;;4934764;29;20397;-73
2022/02/19 06:00:19;;;;;;;3.25;1.63;;;5.60;56.30;;;;;;4935914;29;20023;-79
2022/02/19 06:02:44;;;;;;;4.72;1.80;;;5.60;56.40;;;;;;4935775;29;20466;-79
2022/02/19 06:05:10;;;;;;;2.72;2.17;;;5.60;56.80;;;;;;4935833;29;20075;-74
2022/02/19 06:07:36;;;;;;;9.35;2.72;;;5.50;57.00;;;;;;4935654;29;20393;-73
2022/02/19 06:10:02;;;;;;;5.63;2.20;;;5.60;57.10;;;;;;4933988;29;20039;-79
2022/02/19 06:12:27;;;;;;;5.70;1.80;;;5.60;57.30;;;;;;4918633;29;20051;-79
2022/02/19 06:14:53;;;;;;;5.00;2.00;;;5.60;57.10;;;;;;4935698;29;20071;-79
2022/02/19 06:17:19;;;;;;;3.90;2.00;;;5.70;57.60;;;;;;4935403;29;20114;-79
2022/02/19 06:19:44;;;;;;;3.83;1.60;;;5.70;57.60;;;;;;4935144;29;20127;-79
2022/02/19 06:22:10;;;;;;;3.45;2.35;;;5.70;57.30;;;;;;4935526;29;20470;-73
2022/02/19 06:24:37;;;;;;;2.85;1.50;;;5.80;57.50;;;;;;4935170;29;20130;-74
2022/02/19 06:27:05;;;;;;;5.35;2.17;;;5.80;57.70;;;;;;4953265;28;20035;-73
2022/02/19 06:29:30;;;;;;;14.07;5.22;;;5.80;57.60;;;;;;4937306;29;20065;-74
2022/02/19 06:31:56;;;;;;;27.42;10.18;;;5.80;56.60;;;;;;4954427;28;20106;-74
2022/02/19 06:34:21;;;;;;;6.25;2.30;;;5.80;56.70;;;;;;4954446;28;20102;-74
2022/02/19 06:36:47;;;;;;;6.35;2.80;;;6.00;55.30;;;;;;4953034;28;20397;-73
2022/02/19 06:39:13;;;;;;;3.47;2.50;;;6.00;55.30;;;;;;4918030;29;20485;-74
2022/02/19 06:41:38;;;;;;;10.73;4.45;;;6.00;55.60;;;;;;4934664;29;20099;-74
2022/02/19 06:44:04;;;;;;;10.32;3.20;;;6.00;55.50;;;;;;4918051;29;20047;-74
2022/02/19 06:46:29;;;;;;;5.30;2.33;;;6.00;55.40;;;;;;4917968;29;20141;-73
2022/02/19 06:48:55;;;;;;;6.88;2.33;;;6.10;55.40;;;;;;4918044;29;20084;-74
2022/02/19 06:51:21;;;;;;;7.90;2.47;;;6.10;55.30;;;;;;4917978;29;20027;-73
2022/02/19 06:53:46;;;;;;;5.05;1.80;;;6.20;54.80;;;;;;4918213;29;20577;-74
2022/02/19 06:56:12;;;;;;;16.20;4.68;;;6.30;53.70;;;;;;4937053;29;20034;-74
2022/02/19 06:58:37;;;;;;;5.43;2.15;;;6.30;53.20;;;;;;4938546;29;20430;-74
2022/02/19 07:01:03;;;;;;;7.55;3.08;;;6.40;52.20;;;;;;4938799;29;20023;-79
2022/02/19 07:03:29;;;;;;;4.15;1.83;;;6.40;51.20;;;;;;4938825;29;20024;-74
2022/02/19 07:05:54;;;;;;;6.80;1.88;;;6.50;50.00;;;;;;4938758;29;20189;-79
2022/02/19 07:08:20;;;;;;;7.05;2.17;;;6.50;50.30;;;;;;4921520;29;20036;-73
2022/02/19 07:10:47;;;;;;;3.58;1.83;;;6.60;49.90;;;;;;4938099;29;20032;-79
2022/02/19 07:13:13;;;;;;;9.20;2.67;;;6.60;50.30;;;;;;4938711;29;20043;-74
2022/02/19 07:15:40;;;;;;;7.32;2.25;;;6.70;50.50;;;;;;4921503;29;20497;-74
2022/02/19 07:18:05;;;;;;;11.13;2.40;;;6.70;50.80;;;;;;4937891;29;20119;-80
2022/02/19 07:20:34;;;;;;;10.32;2.75;;;6.80;50.90;;;;;;4938214;29;20131;-73
2022/02/19 07:23:00;;;;;;;4.85;2.58;;;6.80;51.30;;;;;;4917937;29;20027;-74
2022/02/19 07:25:25;;;;;;;6.70;2.03;;;6.80;51.30;;;;;;4934789;29;20038;-80
2022/02/19 07:27:51;;;;;;;8.20;4.03;;;6.80;51.00;;;;;;4918946;29;20031;-80
2022/02/19 07:30:19;;;;;;;7.00;2.50;;;6.90;51.60;;;;;;4938203;29;20020;-80
2022/02/19 07:32:47;;;;;;;7.05;2.60;;;7.00;52.00;;;;;;4938124;28;20027;-79
2022/02/19 07:35:13;;;;;;;6.90;2.67;;;7.00;52.00;;;;;;4944873;28;20504;-73
2022/02/19 07:37:39;;;;;;;6.82;2.40;;;7.10;52.00;;;;;;4936988;29;20027;-80
2022/02/19 07:40:06;;;;;;;5.97;2.55;;;7.10;52.50;;;;;;4936288;29;20400;-73
2022/02/19 07:42:33;;;;;;;5.50;2.47;;;7.20;53.30;;;;;;4936308;29;20032;-74
2022/02/19 07:44:59;;;;;;;7.10;2.20;;;7.20;52.90;;;;;;4935298;28;20046;-73
2022/02/19 07:47:29;;;;;;;8.13;2.97;;;7.20;52.30;;;;;;4947343;28;20043;-73
2022/02/19 07:58:18;;;;;;;6.95;2.47;;;7.30;50.10;;;;;;4956478;28;20030;-74
2022/02/19 08:00:44;;;;;;;3.50;1.85;;;7.30;48.60;;;;;;4955946;28;20041;-73
2022/02/19 08:03:10;;;;;;;7.63;3.00;;;7.40;47.10;;;;;;4956176;28;20019;-74
2022/02/19 08:05:36;;;;;;;3.78;1.52;;;7.30;46.10;;;;;;4955158;28;20440;-75
2022/02/19 08:08:01;;;;;;;3.33;1.83;;;7.30;46.10;;;;;;4955779;28;20043;-74
2022/02/19 08:10:27;;;;;;;7.18;1.98;;;7.30;46.20;;;;;;4954591;28;20036;-74
2022/02/19 08:12:52;;;;;;;5.78;1.95;;;7.40;46.30;;;;;;4938778;29;20023;-74
2022/02/19 08:15:18;;;;;;;4.50;1.67;;;7.40;45.90;;;;;;4938173;28;20035;-74
2022/02/19 08:17:44;;;;;;;6.70;2.45;;;7.40;45.40;;;;;;4933594;29;20035;-73
2022/02/19 08:20:09;;;;;;;5.70;1.38;;;7.40;45.80;;;;;;4951015;28;20058;-73
2022/02/19 08:22:35;;;;;;;5.13;2.03;;;7.40;45.30;;;;;;4937319;29;20043;-74
2022/02/19 08:25:00;;;;;;;9.68;2.65;;;7.50;45.20;;;;;;4954493;28;20097;-74
2022/02/19 08:27:26;;;;;;;7.15;1.77;;;7.60;45.90;;;;;;4955459;28;20114;-74
2022/02/19 08:29:52;;;;;;;4.50;1.50;;;7.50;44.10;;;;;;4955336;28;20039;-75
2022/02/19 08:32:18;;;;;;;4.75;1.65;;;7.50;44.00;;;;;;4938173;28;20038;-75
2022/02/19 08:34:43;;;;;;;4.47;1.75;;;7.60;44.50;;;;;;4937156;28;20039;-75
2022/02/19 08:37:09;;;;;;;6.05;1.65;;;7.80;44.40;;;;;;4937734;29;20030;-74
2022/02/19 08:39:34;;;;;;;2.97;2.00;;;8.00;44.60;;;;;;4935518;29;20544;-74
2022/02/19 08:42:00;;;;;;;7.05;1.80;;;7.80;43.40;;;;;;4937876;29;20019;-74
2022/02/19 08:44:26;;;;;;;9.57;2.92;;;7.70;43.70;;;;;;4937458;28;20059;-75
2022/02/19 08:46:51;;;;;;;8.38;2.30;;;7.70;44.60;;;;;;4954533;28;20035;-74
2022/02/19 08:49:17;;;;;;;4.40;2.10;;;7.60;44.50;;;;;;4936988;28;20397;-81
2022/02/19 08:51:43;;;;;;;4.22;1.65;;;7.60;45.00;;;;;;4954882;28;20066;-81
2022/02/19 08:54:09;;;;;;;10.13;3.08;;;7.60;44.50;;;;;;4937097;29;20598;-82
2022/02/19 08:56:36;;;;;;;6.82;2.25;;;7.50;44.00;;;;;;4954657;28;20477;-81
2022/02/19 08:59:02;;;;;;;21.23;7.18;;;7.50;42.60;;;;;;4954989;28;20030;-81
2022/02/19 09:01:28;;;;;;;3.67;1.60;;;7.30;42.70;;;;;;4954683;28;20040;-81
2022/02/19 09:03:54;;;;;;;7.78;4.30;;;7.20;42.60;;;;;;4954500;28;20020;-82
2022/02/19 09:06:20;;;;;;;5.80;1.30;;;7.10;43.00;;;;;;4934920;28;20119;-81
2022/02/19 09:08:46;;;;;;;8.23;3.38;;;7.10;43.00;;;;;;4952093;28;20110;-81
2022/02/19 09:11:12;;;;;;;7.03;3.05;;;7.10;42.70;;;;;;4934835;28;20048;-81
2022/02/19 09:13:38;;;;;;;6.43;2.67;;;7.10;43.00;;;;;;4952782;28;20032;-82
2022/02/19 09:16:03;;;;;;;11.55;3.10;;;7.10;43.10;;;;;;4951568;28;20043;-82
2022/02/19 09:18:29;;;;;;;4.15;1.50;;;7.10;42.70;;;;;;4970673;28;20037;-82
2022/02/19 09:20:55;;;;;;;5.85;2.83;;;7.20;44.10;;;;;;4952489;28;20046;-81
2022/02/19 09:23:20;;;;;;;6.05;2.10;;;7.30;43.80;;;;;;4972324;28;20038;-81
2022/02/19 09:25:46;;;;;;;2.25;1.40;;;7.20;43.70;;;;;;4955916;28;20030;-82
2022/02/19 09:28:13;;;;;;;2.80;0.95;;;7.20;43.90;;;;;;4967649;28;20035;-81
2022/02/19 09:30:39;;;;;;;4.50;1.70;;;7.10;43.10;;;;;;4963192;28;20035;-83
2022/02/19 09:33:05;;;;;;;8.27;2.15;;;7.00;43.20;;;;;;4973557;28;20605;-81
2022/02/19 09:35:30;;;;;;;5.75;1.77;;;7.00;43.40;;;;;;4973436;28;20042;-82
2022/02/19 09:37:56;;;;;;;5.70;2.47;;;7.00;43.80;;;;;;4973370;28;20034;-81
2022/02/19 09:40:22;;;;;;;10.82;4.68;;;7.00;43.60;;;;;;4955210;28;20038;-81
2022/02/19 09:42:49;;;;;;;1.95;1.67;;;7.00;42.90;;;;;;4972221;28;20101;-82
2022/02/19 09:45:17;;;;;;;3.72;1.35;;;7.00;43.60;;;;;;4972680;28;20082;-84
2022/02/19 09:47:44;;;;;;;10.18;4.45;;;7.00;43.30;;;;;;4940191;28;20036;-84
2022/02/19 09:50:11;;;;;;;8.07;5.32;;;7.10;43.80;;;;;;4917600;29;20024;-82
2022/02/19 09:52:38;;;;;;;71.57;29.17;;;7.00;43.60;;;;;;4934788;29;20402;-82
2022/02/19 09:55:04;;;;;;;41.40;18.13;;;7.00;44.20;;;;;;4917049;29;20053;-82
2022/02/19 09:57:30;;;;;;;9.88;5.40;;;6.90;44.30;;;;;;4933533;29;20024;-83
2022/02/19 09:59:56;;;;;;;7.57;4.07;;;6.90;44.30;;;;;;4926523;29;20444;-83
2022/02/19 10:02:31;;;;;;;8.80;4.53;;;6.90;44.40;;;;;;4936263;29;20067;-83
2022/02/19 10:05:09;;;;;;;5.35;1.70;;;6.90;45.10;;;;;;4953075;28;20102;-82
2022/02/19 10:07:36;;;;;;;18.13;10.00;;;7.00;45.30;;;;;;4950258;28;20860;-80
2022/02/19 10:10:03;;;;;;;12.77;6.22;;;7.00;45.60;;;;;;4973450;28;20046;-81
2022/02/19 10:12:48;;;;;;;4.40;2.58;;;7.00;45.00;;;;;;4954663;28;20065;-81
2022/02/19 10:15:14;;;;;;;3.70;1.50;;;7.00;45.00;;;;;;4955100;28;20023;-81
2022/02/19 10:17:40;;;;;;;3.10;1.25;;;6.90;44.80;;;;;;4948168;28;20051;-80
2022/02/19 10:20:07;;;;;;;3.85;1.00;;;6.90;44.90;;;;;;4917609;29;20200;-73
2022/02/19 10:22:41;;;;;;;9.57;3.65;;;6.80;44.70;;;;;;4916105;29;20038;-79
2022/02/19 10:25:08;;;;;;;14.40;8.40;;;6.90;44.90;;;;;;4934755;29;20422;-72
2022/02/19 10:27:44;;;;;;;7.22;5.10;;;6.90;45.20;;;;;;4934002;29;20106;-72
2022/02/19 10:30:21;;;;;;;8.20;4.78;;;6.90;45.80;;;;;;4935129;29;20038;-73
2022/02/19 10:32:56;;;;;;;1.95;1.30;;;6.90;45.60;;;;;;4935754;29;20577;-73
2022/02/19 10:35:32;;;;;;;3.47;1.50;;;6.90;45.70;;;;;;4936434;29;20059;-73
2022/02/19 10:38:01;;;;;;;5.50;2.95;;;6.90;46.30;;;;;;4941525;28;20035;-72
2022/02/19 10:40:30;;;;;;;4.43;2.05;;;6.90;45.70;;;;;;4953627;28;20038;-72
2022/02/19 10:42:58;;;;;;;3.72;1.55;;;6.90;45.80;;;;;;4976438;28;20023;-73
2022/02/19 10:45:25;;;;;;;2.55;1.83;;;7.00;46.30;;;;;;4956830;28;20500;-71
2022/02/19 10:47:54;;;;;;;5.55;1.92;;;7.00;45.70;;;;;;4960049;28;20095;-80
2022/02/19 10:50:21;;;;;;;3.22;1.33;;;7.20;45.50;;;;;;4955361;28;20019;-79
2022/02/19 10:52:56;;;;;;;8.80;2.97;;;7.30;45.50;;;;;;4938624;28;20031;-78
2022/02/19 10:55:28;;;;;;;5.43;1.20;;;7.30;45.40;;;;;;4956763;28;20027;-79
2022/02/19 10:57:59;;;;;;;6.10;1.52;;;7.20;44.80;;;;;;4955477;28;20053;-79
2022/02/19 11:00:25;;;;;;;3.50;2.08;;;7.20;45.50;;;;;;4940129;28;20472;-78
2022/02/19 11:02:52;;;;;;;7.72;2.60;;;7.30;45.70;;;;;;4930357;28;20027;-78
2022/02/19 11:05:19;;;;;;;5.20;1.33;;;7.20;46.20;;;;;;4956193;28;20082;-79
2022/02/19 11:07:47;;;;;;;10.50;5.15;;;7.20;45.60;;;;;;4940399;29;20053;-78
2022/02/19 11:10:14;;;;;;;122.10;40.53;;;7.20;45.60;;;;;;4940364;29;20034;-72
2022/02/19 11:12:40;;;;;;;56.60;18.55;;;7.30;45.70;;;;;;4948562;28;20129;-79
2022/02/19 11:15:08;;;;;;;384.10;115.47;;;7.40;46.30;;;;;;4939491;29;20428;-78
2022/02/19 11:17:34;;;;;;;73.35;23.00;;;7.40;45.90;;;;;;4957779;28;20035;-78
2022/02/19 11:20:07;;;;;;;41.63;13.20;;;7.40;46.10;;;;;;4966378;28;20097;-79
2022/02/19 11:22:35;;;;;;;38.00;11.82;;;7.40;46.90;;;;;;4975954;28;20027;-80
2022/02/19 11:25:03;;;;;;;16.15;5.47;;;7.20;46.20;;;;;;4926073;28;20035;-79
2022/02/19 11:27:35;;;;;;;6.68;2.45;;;7.20;46.60;;;;;;4936384;29;20395;-79
2022/02/19 11:30:05;;;;;;;9.35;2.50;;;7.10;46.60;;;;;;4936784;29;20024;-79
2022/02/19 11:32:32;;;;;;;4.47;1.88;;;7.00;46.80;;;;;;4937858;28;20019;-80
2022/02/19 11:34:58;;;;;;;18.75;7.05;;;7.00;46.90;;;;;;4958259;28;20366;-79
2022/02/19 11:37:25;;;;;;;9.80;2.20;;;7.00;47.00;;;;;;4976719;28;20120;-80
2022/02/19 11:40:10;;;;;;;72.25;21.88;;;6.90;47.00;;;;;;4976568;28;20019;-80
2022/02/19 11:42:51;;;;;;;7.65;3.25;;;6.90;47.50;;;;;;4958587;28;20385;-79
2022/02/19 11:45:23;;;;;;;3.33;1.40;;;7.00;47.60;;;;;;4976637;28;20019;-80
2022/02/19 11:48:13;;;;;;;6.63;2.00;;;7.00;47.40;;;;;;4976199;28;20109;-79
2022/02/19 11:50:42;;;;;;;2.03;1.25;;;7.10;47.80;;;;;;4959114;28;20031;-72
2022/02/19 11:53:11;;;;;;;2.85;1.10;;;7.00;46.90;;;;;;4959234;28;20381;-80
2022/02/19 11:55:46;;;;;;;4.18;1.20;;;7.00;47.20;;;;;;4976178;28;20034;-80
2022/02/19 11:58:14;;;;;;;5.18;1.75;;;7.10;47.30;;;;;;4959082;28;20113;-79
2022/02/19 12:00:54;;;;;;;4.90;2.10;;;7.10;47.20;;;;;;4959078;28;20059;-79
2022/02/19 12:03:30;;;;;;;3.70;1.70;;;7.20;47.10;;;;;;4976780;28;20477;-72
2022/02/19 12:06:27;;;;;;;6.88;3.10;;;7.20;46.90;;;;;;4976465;28;20019;-72
2022/02/19 12:09:25;;;;;;;4.00;1.90;;;7.20;46.90;;;;;;4976236;28;20147;-79
2022/02/19 12:12:09;;;;;;;8.35;3.15;;;7.20;46.90;;;;;;4933944;28;20601;-72
2022/02/19 12:14:58;;;;;;;5.95;2.70;;;7.40;46.80;;;;;;4956879;28;20027;-72
2022/02/19 12:17:39;;;;;;;4.70;1.60;;;7.40;46.30;;;;;;4957010;28;20032;-72
2022/02/19 12:20:06;;;;;;;16.92;6.45;;;7.40;46.30;;;;;;4948781;28;20125;-71
2022/02/19 12:22:41;;;;;;;20.50;7.40;;;7.40;46.60;;;;;;4958432;28;20018;-72
2022/02/19 12:25:11;;;;;;;2.13;1.35;;;7.40;46.70;;;;;;4975972;28;20102;-72
2022/02/19 12:27:39;;;;;;;7.57;2.92;;;7.40;47.10;;;;;;4975634;28;20066;-78
2022/02/19 12:30:21;;;;;;;1.90;1.27;;;7.30;46.70;;;;;;4957720;28;20027;-72
2022/02/19 12:32:49;;;;;;;6.03;2.90;;;7.20;47.00;;;;;;4958874;28;20030;-72
2022/02/19 12:35:15;;;;;;;9.70;2.95;;;7.20;47.40;;;;;;4975963;28;20376;-78
2022/02/19 12:37:41;;;;;;;3.17;1.70;;;7.10;47.60;;;;;;4974029;28;20581;-79
2022/02/19 12:40:08;;;;;;;6.88;1.83;;;7.10;47.50;;;;;;4972247;28;20023;-78
2022/02/19 12:42:34;;;;;;;1.42;1.08;;;7.00;47.40;;;;;;4972299;28;20029;-79
2022/02/19 12:45:08;;;;;;;1.52;1.00;;;6.90;47.80;;;;;;4956036;28;20014;-78
2022/02/19 12:47:35;;;;;;;3.03;1.77;;;6.80;48.10;;;;;;4973551;28;20031;-72
2022/02/19 12:50:02;;;;;;;5.38;2.42;;;6.80;48.50;;;;;;4973506;28;20477;-72
2022/02/19 12:52:28;;;;;;;6.47;2.53;;;6.80;48.90;;;;;;4973929;28;20027;-79
2022/02/19 12:54:54;;;;;;;2.50;1.45;;;6.70;48.80;;;;;;4958410;28;20034;-79
2022/02/19 12:57:22;;;;;;;3.70;1.50;;;6.70;49.10;;;;;;4974534;28;20030;-79
2022/02/19 12:59:50;;;;;;;3.25;1.48;;;6.60;49.30;;;;;;4975827;28;20038;-79
2022/02/19 13:02:18;;;;;;;5.50;1.95;;;6.60;49.60;;;;;;4975742;28;20062;-79
2022/02/19 13:04:45;;;;;;;3.70;1.42;;;6.50;49.80;;;;;;4958288;28;20027;-72